sensor_id;sensor_type;location;lat;lon;timestamp;P1;durP1;ratioP1;P2;durP2;ratioP2
53833;SDS011;39735;51.432;5.482;2023-06-19T00:01:11;6.32;;;5.90;;
53833;SDS011;39735;51.432;5.482;2023-06-19T00:03:36;9.13;;;5.72;;
53833;SDS011;39735;51.432;5.482;2023-06-19T00:06:01;6.63;;;6.07;;
53833;SDS011;39735;51.432;5.482;2023-06-19T00:08:26;8.65;;;5.65;;
53833;SDS011;39735;51.432;5.482;2023-06-19T00:10:52;6.10;;;5.60;;
53833;SDS011;39735;51.432;5.482;2023-06-19T00:13:17;11.45;;;6.22;;
53833;SDS011;39735;51.432;5.482;2023-06-19T00:15:43;6.65;;;6.15;;
53833;SDS011;39735;51.432;5.482;2023-06-19T00:18:09;10.60;;;6.00;;
53833;SDS011;39735;51.432;5.482;2023-06-19T00:20:35;17.95;;;6.78;;
53833;SDS011;39735;51.432;5.482;2023-06-19T00:23:01;15.30;;;5.75;;
53833;SDS011;39735;51.432;5.482;2023-06-19T00:25:26;5.72;;;5.32;;
53833;SDS011;39735;51.432;5.482;2023-06-19T00:27:51;6.68;;;6.00;;
53833;SDS011;39735;51.432;5.482;2023-06-19T00:30:17;7.20;;;5.90;;
53833;SDS011;39735;51.432;5.482;2023-06-19T00:32:42;7.05;;;6.35;;
53833;SDS011;39735;51.432;5.482;2023-06-19T00:35:15;14.25;;;5.93;;
53833;SDS011;39735;51.432;5.482;2023-06-19T00:37:41;7.07;;;6.38;;
53833;SDS011;39735;51.432;5.482;2023-06-19T00:40:09;9.02;;;6.88;;
53833;SDS011;39735;51.432;5.482;2023-06-19T00:42:35;7.30;;;5.78;;
53833;SDS011;39735;51.432;5.482;2023-06-19T00:45:01;7.27;;;6.57;;
53833;SDS011;39735;51.432;5.482;2023-06-19T00:47:26;9.90;;;6.17;;
53833;SDS011;39735;51.432;5.482;2023-06-19T00:49:51;15.07;;;6.28;;
53833;SDS011;39735;51.432;5.482;2023-06-19T00:52:17;12.50;;;6.55;;
53833;SDS011;39735;51.432;5.482;2023-06-19T00:54:42;10.85;;;6.68;;
53833;SDS011;39735;51.432;5.482;2023-06-19T00:57:08;7.65;;;6.80;;
53833;SDS011;39735;51.432;5.482;2023-06-19T00:59:33;10.00;;;8.85;;
53833;SDS011;39735;51.432;5.482;2023-06-19T01:01:58;12.48;;;5.53;;
53833;SDS011;39735;51.432;5.482;2023-06-19T01:04:24;7.65;;;6.97;;
53833;SDS011;39735;51.432;5.482;2023-06-19T01:06:53;10.52;;;5.57;;
53833;SDS011;39735;51.432;5.482;2023-06-19T01:09:22;7.90;;;5.93;;
53833;SDS011;39735;51.432;5.482;2023-06-19T01:11:52;6.78;;;6.07;;
53833;SDS011;39735;51.432;5.482;2023-06-19T01:14:19;14.57;;;6.05;;
53833;SDS011;39735;51.432;5.482;2023-06-19T01:16:46;11.95;;;6.30;;
53833;SDS011;39735;51.432;5.482;2023-06-19T01:19:14;6.70;;;5.95;;
53833;SDS011;39735;51.432;5.482;2023-06-19T01:21:40;6.28;;;5.35;;
53833;SDS011;39735;51.432;5.482;2023-06-19T01:24:06;6.32;;;5.43;;
53833;SDS011;39735;51.432;5.482;2023-06-19T01:26:31;7.87;;;7.10;;
53833;SDS011;39735;51.432;5.482;2023-06-19T01:28:57;8.82;;;5.28;;
53833;SDS011;39735;51.432;5.482;2023-06-19T01:31:28;8.98;;;5.35;;
53833;SDS011;39735;51.432;5.482;2023-06-19T01:33:54;9.60;;;5.88;;
53833;SDS011;39735;51.432;5.482;2023-06-19T01:36:21;4.70;;;4.35;;
53833;SDS011;39735;51.432;5.482;2023-06-19T01:38:47;6.15;;;5.53;;
53833;SDS011;39735;51.432;5.482;2023-06-19T01:41:13;13.23;;;6.00;;
53833;SDS011;39735;51.432;5.482;2023-06-19T01:43:40;7.55;;;5.95;;
53833;SDS011;39735;51.432;5.482;2023-06-19T01:46:05;5.80;;;5.50;;
53833;SDS011;39735;51.432;5.482;2023-06-19T01:48:30;6.63;;;5.82;;
53833;SDS011;39735;51.432;5.482;2023-06-19T01:50:55;7.60;;;5.80;;
53833;SDS011;39735;51.432;5.482;2023-06-19T01:53:21;18.33;;;6.55;;
53833;SDS011;39735;51.432;5.482;2023-06-19T01:55:46;12.63;;;6.50;;
53833;SDS011;39735;51.432;5.482;2023-06-19T01:58:11;4.95;;;4.55;;
53833;SDS011;39735;51.432;5.482;2023-06-19T02:00:37;11.05;;;6.20;;
53833;SDS011;39735;51.432;5.482;2023-06-19T02:03:02;9.25;;;5.47;;
53833;SDS011;39735;51.432;5.482;2023-06-19T02:05:28;7.25;;;5.00;;
53833;SDS011;39735;51.432;5.482;2023-06-19T02:07:53;5.45;;;5.05;;
53833;SDS011;39735;51.432;5.482;2023-06-19T02:10:19;5.40;;;4.97;;
53833;SDS011;39735;51.432;5.482;2023-06-19T02:12:44;5.18;;;4.72;;
53833;SDS011;39735;51.432;5.482;2023-06-19T02:15:09;4.00;;;3.70;;
53833;SDS011;39735;51.432;5.482;2023-06-19T02:17:35;4.53;;;4.20;;
53833;SDS011;39735;51.432;5.482;2023-06-19T02:20:00;7.95;;;4.47;;
53833;SDS011;39735;51.432;5.482;2023-06-19T02:22:25;4.75;;;4.45;;
53833;SDS011;39735;51.432;5.482;2023-06-19T02:24:50;11.23;;;4.03;;
53833;SDS011;39735;51.432;5.482;2023-06-19T02:27:16;5.37;;;4.27;;
53833;SDS011;39735;51.432;5.482;2023-06-19T02:29:41;4.50;;;4.20;;
53833;SDS011;39735;51.432;5.482;2023-06-19T02:32:06;5.35;;;3.78;;
53833;SDS011;39735;51.432;5.482;2023-06-19T02:34:32;3.72;;;3.53;;
53833;SDS011;39735;51.432;5.482;2023-06-19T02:36:57;5.05;;;3.90;;
53833;SDS011;39735;51.432;5.482;2023-06-19T02:39:23;9.60;;;3.97;;
53833;SDS011;39735;51.432;5.482;2023-06-19T02:41:48;3.13;;;2.90;;
53833;SDS011;39735;51.432;5.482;2023-06-19T02:44:13;8.23;;;4.50;;
53833;SDS011;39735;51.432;5.482;2023-06-19T02:46:39;3.28;;;2.85;;
53833;SDS011;39735;51.432;5.482;2023-06-19T02:49:04;4.03;;;3.63;;
53833;SDS011;39735;51.432;5.482;2023-06-19T02:51:30;5.97;;;3.63;;
53833;SDS011;39735;51.432;5.482;2023-06-19T02:53:55;3.23;;;3.00;;
53833;SDS011;39735;51.432;5.482;2023-06-19T02:56:20;4.47;;;3.80;;
53833;SDS011;39735;51.432;5.482;2023-06-19T02:58:45;15.30;;;3.83;;
53833;SDS011;39735;51.432;5.482;2023-06-19T03:01:11;6.57;;;3.53;;
53833;SDS011;39735;51.432;5.482;2023-06-19T03:03:36;9.27;;;4.47;;
53833;SDS011;39735;51.432;5.482;2023-06-19T03:06:05;4.15;;;3.45;;
53833;SDS011;39735;51.432;5.482;2023-06-19T03:08:32;4.05;;;3.85;;
53833;SDS011;39735;51.432;5.482;2023-06-19T03:10:58;8.30;;;3.53;;
53833;SDS011;39735;51.432;5.482;2023-06-19T03:13:23;4.93;;;4.40;;
53833;SDS011;39735;51.432;5.482;2023-06-19T03:15:48;3.38;;;3.17;;
53833;SDS011;39735;51.432;5.482;2023-06-19T03:18:13;19.03;;;5.13;;
53833;SDS011;39735;51.432;5.482;2023-06-19T03:20:39;4.65;;;4.22;;
53833;SDS011;39735;51.432;5.482;2023-06-19T03:23:04;4.45;;;4.05;;
53833;SDS011;39735;51.432;5.482;2023-06-19T03:25:29;3.65;;;3.35;;
53833;SDS011;39735;51.432;5.482;2023-06-19T03:28:00;9.63;;;4.65;;
53833;SDS011;39735;51.432;5.482;2023-06-19T03:30:25;6.13;;;3.85;;
53833;SDS011;39735;51.432;5.482;2023-06-19T03:32:50;5.80;;;4.17;;
53833;SDS011;39735;51.432;5.482;2023-06-19T03:35:15;5.77;;;4.63;;
53833;SDS011;39735;51.432;5.482;2023-06-19T03:37:41;15.07;;;4.17;;
53833;SDS011;39735;51.432;5.482;2023-06-19T03:40:06;4.70;;;3.53;;
53833;SDS011;39735;51.432;5.482;2023-06-19T03:42:33;9.93;;;3.85;;
53833;SDS011;39735;51.432;5.482;2023-06-19T03:44:59;14.35;;;4.72;;
53833;SDS011;39735;51.432;5.482;2023-06-19T03:47:25;10.73;;;4.23;;
53833;SDS011;39735;51.432;5.482;2023-06-19T03:49:50;4.03;;;3.67;;
53833;SDS011;39735;51.432;5.482;2023-06-19T03:52:15;5.60;;;4.03;;
53833;SDS011;39735;51.432;5.482;2023-06-19T03:54:40;5.20;;;4.22;;
53833;SDS011;39735;51.432;5.482;2023-06-19T03:57:06;12.23;;;4.20;;
53833;SDS011;39735;51.432;5.482;2023-06-19T03:59:33;5.55;;;3.40;;
53833;SDS011;39735;51.432;5.482;2023-06-19T04:01:58;18.13;;;4.20;;
53833;SDS011;39735;51.432;5.482;2023-06-19T04:04:24;9.13;;;3.97;;
53833;SDS011;39735;51.432;5.482;2023-06-19T04:06:49;3.38;;;3.17;;
53833;SDS011;39735;51.432;5.482;2023-06-19T04:09:14;6.65;;;4.38;;
53833;SDS011;39735;51.432;5.482;2023-06-19T04:11:39;11.27;;;4.78;;
53833;SDS011;39735;51.432;5.482;2023-06-19T04:14:05;8.73;;;5.18;;
53833;SDS011;39735;51.432;5.482;2023-06-19T04:16:30;4.10;;;3.90;;
53833;SDS011;39735;51.432;5.482;2023-06-19T04:18:55;8.57;;;2.57;;
53833;SDS011;39735;51.432;5.482;2023-06-19T04:21:21;12.13;;;3.87;;
53833;SDS011;39735;51.432;5.482;2023-06-19T04:23:46;7.35;;;3.35;;
53833;SDS011;39735;51.432;5.482;2023-06-19T04:26:11;5.55;;;4.10;;
53833;SDS011;39735;51.432;5.482;2023-06-19T04:28:36;5.93;;;3.60;;
53833;SDS011;39735;51.432;5.482;2023-06-19T04:31:02;3.53;;;3.33;;
53833;SDS011;39735;51.432;5.482;2023-06-19T04:33:27;4.38;;;4.15;;
53833;SDS011;39735;51.432;5.482;2023-06-19T04:35:53;12.07;;;4.40;;
53833;SDS011;39735;51.432;5.482;2023-06-19T04:38:18;14.77;;;4.10;;
53833;SDS011;39735;51.432;5.482;2023-06-19T04:40:44;6.55;;;4.82;;
53833;SDS011;39735;51.432;5.482;2023-06-19T04:43:09;17.13;;;4.90;;
53833;SDS011;39735;51.432;5.482;2023-06-19T04:45:35;10.45;;;3.42;;
53833;SDS011;39735;51.432;5.482;2023-06-19T04:48:00;4.15;;;3.22;;
53833;SDS011;39735;51.432;5.482;2023-06-19T04:50:28;9.18;;;4.20;;
53833;SDS011;39735;51.432;5.482;2023-06-19T04:52:53;11.85;;;4.88;;
53833;SDS011;39735;51.432;5.482;2023-06-19T04:55:18;5.70;;;3.37;;
53833;SDS011;39735;51.432;5.482;2023-06-19T04:57:43;8.27;;;3.83;;
53833;SDS011;39735;51.432;5.482;2023-06-19T05:00:09;25.55;;;5.80;;
53833;SDS011;39735;51.432;5.482;2023-06-19T05:02:39;7.60;;;4.50;;
53833;SDS011;39735;51.432;5.482;2023-06-19T05:05:08;13.27;;;4.10;;
53833;SDS011;39735;51.432;5.482;2023-06-19T05:07:33;5.47;;;3.72;;
53833;SDS011;39735;51.432;5.482;2023-06-19T05:09:59;3.53;;;3.17;;
53833;SDS011;39735;51.432;5.482;2023-06-19T05:12:24;19.45;;;3.80;;
53833;SDS011;39735;51.432;5.482;2023-06-19T05:14:49;10.05;;;3.88;;
53833;SDS011;39735;51.432;5.482;2023-06-19T05:17:15;17.83;;;4.28;;
53833;SDS011;39735;51.432;5.482;2023-06-19T05:19:40;9.77;;;4.82;;
53833;SDS011;39735;51.432;5.482;2023-06-19T05:22:05;4.47;;;2.90;;
53833;SDS011;39735;51.432;5.482;2023-06-19T05:24:31;4.47;;;3.75;;
53833;SDS011;39735;51.432;5.482;2023-06-19T05:26:56;5.35;;;4.90;;
53833;SDS011;39735;51.432;5.482;2023-06-19T05:29:22;7.40;;;4.47;;
53833;SDS011;39735;51.432;5.482;2023-06-19T05:31:47;5.43;;;3.85;;
53833;SDS011;39735;51.432;5.482;2023-06-19T05:34:12;6.13;;;3.67;;
53833;SDS011;39735;51.432;5.482;2023-06-19T05:36:38;21.50;;;3.60;;
53833;SDS011;39735;51.432;5.482;2023-06-19T05:39:03;16.07;;;4.60;;
53833;SDS011;39735;51.432;5.482;2023-06-19T05:41:29;9.55;;;4.72;;
53833;SDS011;39735;51.432;5.482;2023-06-19T05:43:55;6.53;;;4.20;;
53833;SDS011;39735;51.432;5.482;2023-06-19T05:46:21;12.20;;;5.40;;
53833;SDS011;39735;51.432;5.482;2023-06-19T05:48:47;7.15;;;4.65;;
53833;SDS011;39735;51.432;5.482;2023-06-19T05:51:12;6.13;;;4.43;;
53833;SDS011;39735;51.432;5.482;2023-06-19T05:53:38;4.00;;;3.65;;
53833;SDS011;39735;51.432;5.482;2023-06-19T05:56:04;6.10;;;4.10;;
53833;SDS011;39735;51.432;5.482;2023-06-19T05:58:30;7.20;;;5.32;;
53833;SDS011;39735;51.432;5.482;2023-06-19T06:00:55;5.73;;;3.97;;
53833;SDS011;39735;51.432;5.482;2023-06-19T06:03:26;19.10;;;6.47;;
53833;SDS011;39735;51.432;5.482;2023-06-19T06:05:52;43.25;;;4.22;;
53833;SDS011;39735;51.432;5.482;2023-06-19T06:08:17;6.78;;;4.30;;
53833;SDS011;39735;51.432;5.482;2023-06-19T06:10:43;4.63;;;4.13;;
53833;SDS011;39735;51.432;5.482;2023-06-19T06:13:08;4.90;;;4.35;;
53833;SDS011;39735;51.432;5.482;2023-06-19T06:15:33;15.50;;;4.30;;
53833;SDS011;39735;51.432;5.482;2023-06-19T06:17:58;17.07;;;5.43;;
53833;SDS011;39735;51.432;5.482;2023-06-19T06:20:24;9.32;;;4.70;;
53833;SDS011;39735;51.432;5.482;2023-06-19T06:22:49;18.23;;;5.70;;
53833;SDS011;39735;51.432;5.482;2023-06-19T06:25:14;12.55;;;4.57;;
53833;SDS011;39735;51.432;5.482;2023-06-19T06:27:40;14.48;;;5.28;;
53833;SDS011;39735;51.432;5.482;2023-06-19T06:30:05;14.52;;;6.43;;
53833;SDS011;39735;51.432;5.482;2023-06-19T06:32:31;8.60;;;4.68;;
53833;SDS011;39735;51.432;5.482;2023-06-19T06:34:56;25.38;;;5.57;;
53833;SDS011;39735;51.432;5.482;2023-06-19T06:37:21;9.13;;;5.47;;
53833;SDS011;39735;51.432;5.482;2023-06-19T06:39:50;7.13;;;4.55;;
53833;SDS011;39735;51.432;5.482;2023-06-19T06:42:16;5.75;;;5.15;;
53833;SDS011;39735;51.432;5.482;2023-06-19T06:44:41;7.80;;;4.43;;
53833;SDS011;39735;51.432;5.482;2023-06-19T06:47:06;10.65;;;6.45;;
53833;SDS011;39735;51.432;5.482;2023-06-19T06:49:31;18.10;;;5.13;;
53833;SDS011;39735;51.432;5.482;2023-06-19T06:51:57;7.00;;;4.20;;
53833;SDS011;39735;51.432;5.482;2023-06-19T06:54:22;6.75;;;5.32;;
53833;SDS011;39735;51.432;5.482;2023-06-19T06:56:47;8.98;;;5.30;;
53833;SDS011;39735;51.432;5.482;2023-06-19T06:59:13;7.03;;;5.95;;
53833;SDS011;39735;51.432;5.482;2023-06-19T07:01:41;6.43;;;5.70;;
53833;SDS011;39735;51.432;5.482;2023-06-19T07:04:06;6.13;;;4.97;;
53833;SDS011;39735;51.432;5.482;2023-06-19T07:06:31;13.80;;;6.33;;
53833;SDS011;39735;51.432;5.482;2023-06-19T07:08:56;16.20;;;6.57;;
53833;SDS011;39735;51.432;5.482;2023-06-19T07:11:22;7.20;;;6.20;;
53833;SDS011;39735;51.432;5.482;2023-06-19T07:13:47;16.52;;;5.93;;
53833;SDS011;39735;51.432;5.482;2023-06-19T07:16:12;27.25;;;8.35;;
53833;SDS011;39735;51.432;5.482;2023-06-19T07:18:37;9.23;;;6.50;;
53833;SDS011;39735;51.432;5.482;2023-06-19T07:21:03;6.70;;;6.03;;
53833;SDS011;39735;51.432;5.482;2023-06-19T07:23:33;24.10;;;5.95;;
53833;SDS011;39735;51.432;5.482;2023-06-19T07:25:58;11.70;;;7.90;;
53833;SDS011;39735;51.432;5.482;2023-06-19T07:28:23;11.17;;;7.17;;
53833;SDS011;39735;51.432;5.482;2023-06-19T07:30:48;9.82;;;6.97;;
53833;SDS011;39735;51.432;5.482;2023-06-19T07:33:14;11.77;;;6.63;;
53833;SDS011;39735;51.432;5.482;2023-06-19T07:35:39;16.38;;;8.32;;
53833;SDS011;39735;51.432;5.482;2023-06-19T07:38:04;12.17;;;8.47;;
53833;SDS011;39735;51.432;5.482;2023-06-19T07:40:30;10.40;;;7.00;;
53833;SDS011;39735;51.432;5.482;2023-06-19T07:42:55;10.50;;;6.90;;
53833;SDS011;39735;51.432;5.482;2023-06-19T07:45:20;36.37;;;7.77;;
53833;SDS011;39735;51.432;5.482;2023-06-19T07:47:57;21.92;;;9.23;;
53833;SDS011;39735;51.432;5.482;2023-06-19T07:50:22;6.95;;;5.55;;
53833;SDS011;39735;51.432;5.482;2023-06-19T07:52:47;14.55;;;6.53;;
53833;SDS011;39735;51.432;5.482;2023-06-19T07:55:13;11.20;;;5.93;;
53833;SDS011;39735;51.432;5.482;2023-06-19T07:57:38;7.70;;;5.60;;
53833;SDS011;39735;51.432;5.482;2023-06-19T08:00:04;9.43;;;6.20;;
53833;SDS011;39735;51.432;5.482;2023-06-19T08:02:38;19.23;;;5.88;;
53833;SDS011;39735;51.432;5.482;2023-06-19T08:05:04;6.05;;;5.13;;
53833;SDS011;39735;51.432;5.482;2023-06-19T08:07:29;13.27;;;5.30;;
53833;SDS011;39735;51.432;5.482;2023-06-19T08:09:54;10.95;;;5.70;;
53833;SDS011;39735;51.432;5.482;2023-06-19T08:12:19;6.87;;;6.13;;
53833;SDS011;39735;51.432;5.482;2023-06-19T08:14:45;6.93;;;5.22;;
53833;SDS011;39735;51.432;5.482;2023-06-19T08:17:10;12.87;;;5.17;;
53833;SDS011;39735;51.432;5.482;2023-06-19T08:19:35;5.87;;;5.30;;
53833;SDS011;39735;51.432;5.482;2023-06-19T08:22:00;14.40;;;4.68;;
53833;SDS011;39735;51.432;5.482;2023-06-19T08:24:26;6.03;;;5.47;;
53833;SDS011;39735;51.432;5.482;2023-06-19T08:26:51;9.52;;;6.57;;
53833;SDS011;39735;51.432;5.482;2023-06-19T08:29:17;14.27;;;7.03;;
53833;SDS011;39735;51.432;5.482;2023-06-19T08:31:43;7.45;;;6.00;;
53833;SDS011;39735;51.432;5.482;2023-06-19T08:34:08;18.75;;;6.22;;
53833;SDS011;39735;51.432;5.482;2023-06-19T08:36:35;10.90;;;6.30;;
53833;SDS011;39735;51.432;5.482;2023-06-19T08:39:00;8.40;;;5.60;;
53833;SDS011;39735;51.432;5.482;2023-06-19T08:41:26;12.70;;;5.25;;
53833;SDS011;39735;51.432;5.482;2023-06-19T08:43:51;7.18;;;5.47;;
53833;SDS011;39735;51.432;5.482;2023-06-19T08:46:17;11.60;;;7.45;;
53833;SDS011;39735;51.432;5.482;2023-06-19T08:48:43;7.72;;;5.10;;
53833;SDS011;39735;51.432;5.482;2023-06-19T08:51:12;12.30;;;6.68;;
53833;SDS011;39735;51.432;5.482;2023-06-19T08:53:45;11.35;;;5.65;;
53833;SDS011;39735;51.432;5.482;2023-06-19T08:56:11;32.93;;;6.27;;
53833;SDS011;39735;51.432;5.482;2023-06-19T08:58:36;13.10;;;7.40;;
53833;SDS011;39735;51.432;5.482;2023-06-19T09:01:02;23.80;;;5.95;;
53833;SDS011;39735;51.432;5.482;2023-06-19T09:03:27;6.55;;;5.93;;
53833;SDS011;39735;51.432;5.482;2023-06-19T09:05:52;14.50;;;8.23;;
53833;SDS011;39735;51.432;5.482;2023-06-19T09:08:18;15.33;;;6.83;;
53833;SDS011;39735;51.432;5.482;2023-06-19T09:11:00;12.00;;;6.78;;
53833;SDS011;39735;51.432;5.482;2023-06-19T09:13:26;12.93;;;5.05;;
53833;SDS011;39735;51.432;5.482;2023-06-19T09:16:00;13.10;;;7.43;;
53833;SDS011;39735;51.432;5.482;2023-06-19T09:18:26;9.90;;;6.75;;
53833;SDS011;39735;51.432;5.482;2023-06-19T09:20:52;11.15;;;5.20;;
53833;SDS011;39735;51.432;5.482;2023-06-19T09:23:19;13.75;;;5.45;;
53833;SDS011;39735;51.432;5.482;2023-06-19T09:25:45;14.82;;;5.85;;
53833;SDS011;39735;51.432;5.482;2023-06-19T09:28:32;16.10;;;7.10;;
53833;SDS011;39735;51.432;5.482;2023-06-19T09:31:01;8.68;;;5.35;;
53833;SDS011;39735;51.432;5.482;2023-06-19T09:33:30;15.50;;;6.28;;
53833;SDS011;39735;51.432;5.482;2023-06-19T09:35:56;16.17;;;5.78;;
53833;SDS011;39735;51.432;5.482;2023-06-19T09:38:26;6.40;;;5.65;;
53833;SDS011;39735;51.432;5.482;2023-06-19T09:40:52;15.38;;;7.93;;
53833;SDS011;39735;51.432;5.482;2023-06-19T09:43:18;18.30;;;6.22;;
53833;SDS011;39735;51.432;5.482;2023-06-19T09:45:46;11.55;;;6.07;;
53833;SDS011;39735;51.432;5.482;2023-06-19T09:48:14;28.05;;;7.70;;
53833;SDS011;39735;51.432;5.482;2023-06-19T09:50:41;7.18;;;5.43;;
53833;SDS011;39735;51.432;5.482;2023-06-19T09:53:07;14.18;;;7.35;;
53833;SDS011;39735;51.432;5.482;2023-06-19T09:55:33;8.23;;;6.57;;
53833;SDS011;39735;51.432;5.482;2023-06-19T09:57:59;15.48;;;7.90;;
53833;SDS011;39735;51.432;5.482;2023-06-19T10:00:24;19.85;;;6.43;;
53833;SDS011;39735;51.432;5.482;2023-06-19T10:02:56;10.40;;;7.03;;
53833;SDS011;39735;51.432;5.482;2023-06-19T10:05:29;11.45;;;6.82;;
53833;SDS011;39735;51.432;5.482;2023-06-19T10:07:55;12.40;;;6.18;;
53833;SDS011;39735;51.432;5.482;2023-06-19T10:10:24;8.27;;;7.50;;
53833;SDS011;39735;51.432;5.482;2023-06-19T10:12:50;7.05;;;6.40;;
53833;SDS011;39735;51.432;5.482;2023-06-19T10:17:48;8.82;;;7.32;;
53833;SDS011;39735;51.432;5.482;2023-06-19T10:20:24;16.20;;;6.72;;
53833;SDS011;39735;51.432;5.482;2023-06-19T10:22:50;13.15;;;8.18;;
53833;SDS011;39735;51.432;5.482;2023-06-19T10:25:35;7.85;;;7.25;;
53833;SDS011;39735;51.432;5.482;2023-06-19T10:28:01;29.35;;;7.43;;
53833;SDS011;39735;51.432;5.482;2023-06-19T10:30:27;29.35;;;9.25;;
53833;SDS011;39735;51.432;5.482;2023-06-19T10:32:52;24.60;;;7.55;;
53833;SDS011;39735;51.432;5.482;2023-06-19T10:35:18;13.65;;;7.75;;
53833;SDS011;39735;51.432;5.482;2023-06-19T10:37:46;13.07;;;7.00;;
53833;SDS011;39735;51.432;5.482;2023-06-19T10:40:12;8.15;;;6.13;;
53833;SDS011;39735;51.432;5.482;2023-06-19T10:42:37;20.45;;;9.00;;
53833;SDS011;39735;51.432;5.482;2023-06-19T10:45:03;13.35;;;7.65;;
53833;SDS011;39735;51.432;5.482;2023-06-19T10:47:31;37.70;;;8.10;;
53833;SDS011;39735;51.432;5.482;2023-06-19T10:49:56;28.73;;;9.10;;
53833;SDS011;39735;51.432;5.482;2023-06-19T10:52:22;17.55;;;8.18;;
53833;SDS011;39735;51.432;5.482;2023-06-19T10:54:52;15.77;;;9.77;;
53833;SDS011;39735;51.432;5.482;2023-06-19T10:57:17;30.63;;;8.45;;
53833;SDS011;39735;51.432;5.482;2023-06-19T10:59:43;8.82;;;7.95;;
53833;SDS011;39735;51.432;5.482;2023-06-19T11:02:08;18.13;;;7.03;;
53833;SDS011;39735;51.432;5.482;2023-06-19T11:04:36;12.50;;;8.13;;
53833;SDS011;39735;51.432;5.482;2023-06-19T11:07:04;12.48;;;7.72;;
53833;SDS011;39735;51.432;5.482;2023-06-19T11:09:29;20.33;;;9.23;;
53833;SDS011;39735;51.432;5.482;2023-06-19T11:11:55;39.15;;;9.68;;
53833;SDS011;39735;51.432;5.482;2023-06-19T11:14:20;20.90;;;7.67;;
53833;SDS011;39735;51.432;5.482;2023-06-19T11:16:46;13.20;;;8.23;;
53833;SDS011;39735;51.432;5.482;2023-06-19T11:19:15;13.38;;;8.75;;
53833;SDS011;39735;51.432;5.482;2023-06-19T11:21:51;25.80;;;8.75;;
53833;SDS011;39735;51.432;5.482;2023-06-19T11:24:16;27.55;;;8.73;;
53833;SDS011;39735;51.432;5.482;2023-06-19T11:26:45;9.63;;;7.57;;
53833;SDS011;39735;51.432;5.482;2023-06-19T11:29:18;21.48;;;10.43;;
53833;SDS011;39735;51.432;5.482;2023-06-19T11:31:44;14.63;;;8.40;;
53833;SDS011;39735;51.432;5.482;2023-06-19T11:34:09;9.27;;;7.20;;
53833;SDS011;39735;51.432;5.482;2023-06-19T11:36:38;28.25;;;9.25;;
53833;SDS011;39735;51.432;5.482;2023-06-19T11:39:03;9.82;;;8.25;;
53833;SDS011;39735;51.432;5.482;2023-06-19T11:41:30;15.50;;;7.63;;
53833;SDS011;39735;51.432;5.482;2023-06-19T11:44:14;10.88;;;8.52;;
53833;SDS011;39735;51.432;5.482;2023-06-19T11:49:17;9.43;;;7.73;;
53833;SDS011;39735;51.432;5.482;2023-06-19T11:51:44;15.45;;;8.38;;
53833;SDS011;39735;51.432;5.482;2023-06-19T11:54:09;15.32;;;8.77;;
53833;SDS011;39735;51.432;5.482;2023-06-19T11:56:35;7.85;;;6.93;;
53833;SDS011;39735;51.432;5.482;2023-06-19T11:59:01;8.35;;;6.95;;
53833;SDS011;39735;51.432;5.482;2023-06-19T12:01:26;9.65;;;7.07;;
53833;SDS011;39735;51.432;5.482;2023-06-19T12:03:51;16.00;;;9.02;;
53833;SDS011;39735;51.432;5.482;2023-06-19T12:06:17;26.83;;;7.60;;
53833;SDS011;39735;51.432;5.482;2023-06-19T12:08:43;10.30;;;6.70;;
53833;SDS011;39735;51.432;5.482;2023-06-19T12:11:08;8.65;;;6.85;;
53833;SDS011;39735;51.432;5.482;2023-06-19T12:13:35;15.93;;;7.22;;
53833;SDS011;39735;51.432;5.482;2023-06-19T12:16:00;17.37;;;8.27;;
53833;SDS011;39735;51.432;5.482;2023-06-19T12:18:25;10.70;;;7.23;;
53833;SDS011;39735;51.432;5.482;2023-06-19T12:20:50;11.00;;;7.30;;
53833;SDS011;39735;51.432;5.482;2023-06-19T12:23:16;12.63;;;8.13;;
53833;SDS011;39735;51.432;5.482;2023-06-19T12:25:41;8.00;;;7.30;;
53833;SDS011;39735;51.432;5.482;2023-06-19T12:28:06;11.07;;;6.87;;
53833;SDS011;39735;51.432;5.482;2023-06-19T12:30:33;12.55;;;8.20;;
53833;SDS011;39735;51.432;5.482;2023-06-19T12:32:58;9.77;;;7.47;;
53833;SDS011;39735;51.432;5.482;2023-06-19T12:35:23;6.25;;;5.82;;
53833;SDS011;39735;51.432;5.482;2023-06-19T12:37:50;18.75;;;7.95;;
53833;SDS011;39735;51.432;5.482;2023-06-19T12:40:16;18.35;;;9.02;;
53833;SDS011;39735;51.432;5.482;2023-06-19T12:42:42;20.08;;;8.57;;
53833;SDS011;39735;51.432;5.482;2023-06-19T12:45:08;31.15;;;8.95;;
53833;SDS011;39735;51.432;5.482;2023-06-19T12:47:34;11.32;;;7.53;;
53833;SDS011;39735;51.432;5.482;2023-06-19T12:49:59;21.30;;;8.20;;
53833;SDS011;39735;51.432;5.482;2023-06-19T12:52:25;12.15;;;6.32;;
53833;SDS011;39735;51.432;5.482;2023-06-19T12:54:50;9.38;;;7.00;;
53833;SDS011;39735;51.432;5.482;2023-06-19T12:57:15;13.77;;;7.40;;
53833;SDS011;39735;51.432;5.482;2023-06-19T12:59:40;8.43;;;7.43;;
53833;SDS011;39735;51.432;5.482;2023-06-19T13:02:06;12.40;;;7.20;;
53833;SDS011;39735;51.432;5.482;2023-06-19T13:04:32;26.77;;;8.70;;
53833;SDS011;39735;51.432;5.482;2023-06-19T13:06:57;11.03;;;7.47;;
53833;SDS011;39735;51.432;5.482;2023-06-19T13:09:23;15.80;;;6.90;;
53833;SDS011;39735;51.432;5.482;2023-06-19T13:11:48;8.60;;;6.85;;
53833;SDS011;39735;51.432;5.482;2023-06-19T13:14:14;17.25;;;7.80;;
53833;SDS011;39735;51.432;5.482;2023-06-19T13:16:39;17.03;;;7.73;;
53833;SDS011;39735;51.432;5.482;2023-06-19T13:19:05;9.20;;;7.17;;
53833;SDS011;39735;51.432;5.482;2023-06-19T13:21:30;6.93;;;6.32;;
53833;SDS011;39735;51.432;5.482;2023-06-19T13:23:55;9.87;;;6.60;;
53833;SDS011;39735;51.432;5.482;2023-06-19T13:26:20;14.18;;;9.23;;
53833;SDS011;39735;51.432;5.482;2023-06-19T13:28:46;17.05;;;6.50;;
53833;SDS011;39735;51.432;5.482;2023-06-19T13:31:11;22.73;;;9.47;;
53833;SDS011;39735;51.432;5.482;2023-06-19T13:33:36;13.43;;;7.37;;
53833;SDS011;39735;51.432;5.482;2023-06-19T13:36:01;12.45;;;7.60;;
53833;SDS011;39735;51.432;5.482;2023-06-19T13:38:27;13.55;;;6.82;;
53833;SDS011;39735;51.432;5.482;2023-06-19T13:40:52;8.13;;;6.45;;
53833;SDS011;39735;51.432;5.482;2023-06-19T13:43:17;13.13;;;6.93;;
53833;SDS011;39735;51.432;5.482;2023-06-19T13:45:44;10.88;;;6.13;;
53833;SDS011;39735;51.432;5.482;2023-06-19T13:48:10;12.50;;;6.82;;
53833;SDS011;39735;51.432;5.482;2023-06-19T13:50:35;8.48;;;7.65;;
53833;SDS011;39735;51.432;5.482;2023-06-19T13:53:00;9.20;;;7.10;;
53833;SDS011;39735;51.432;5.482;2023-06-19T13:55:26;16.63;;;6.20;;
53833;SDS011;39735;51.432;5.482;2023-06-19T13:57:51;16.55;;;7.18;;
53833;SDS011;39735;51.432;5.482;2023-06-19T14:00:17;9.18;;;6.30;;
53833;SDS011;39735;51.432;5.482;2023-06-19T14:02:43;29.98;;;9.30;;
53833;SDS011;39735;51.432;5.482;2023-06-19T14:05:08;10.83;;;6.63;;
53833;SDS011;39735;51.432;5.482;2023-06-19T14:07:34;12.23;;;7.50;;
53833;SDS011;39735;51.432;5.482;2023-06-19T14:10:03;8.07;;;5.78;;
53833;SDS011;39735;51.432;5.482;2023-06-19T14:12:28;7.20;;;6.57;;
53833;SDS011;39735;51.432;5.482;2023-06-19T14:14:54;15.80;;;6.97;;
53833;SDS011;39735;51.432;5.482;2023-06-19T14:17:20;11.23;;;6.43;;
53833;SDS011;39735;51.432;5.482;2023-06-19T14:19:46;21.25;;;7.13;;
53833;SDS011;39735;51.432;5.482;2023-06-19T14:22:11;13.93;;;7.03;;
53833;SDS011;39735;51.432;5.482;2023-06-19T14:24:36;9.43;;;6.27;;
53833;SDS011;39735;51.432;5.482;2023-06-19T14:27:01;8.43;;;6.20;;
53833;SDS011;39735;51.432;5.482;2023-06-19T14:29:27;7.55;;;6.53;;
53833;SDS011;39735;51.432;5.482;2023-06-19T14:31:52;8.47;;;5.47;;
53833;SDS011;39735;51.432;5.482;2023-06-19T14:34:18;15.90;;;5.90;;
53833;SDS011;39735;51.432;5.482;2023-06-19T14:36:44;14.18;;;6.78;;
53833;SDS011;39735;51.432;5.482;2023-06-19T14:39:09;7.17;;;5.57;;